Airfield :







YOU CAN JOIN US ON...

 
LOGIN :

Register | Disclaimer

   EN    FR    IT 

 









Legend :    VFR   Marginal VFR   IFR   Intensive IFR   Very Intensive IFR
Visi :
Ceiling :
>= 8 km
>= 3000ft
5 to 8 km
1000 to 3000 ft
1500m to 5 km
500 to 1000 ft
800 to 1500m
200 to 500 ft
< 800m
< 200 ft
Symbols :   Thunderstorms  Fog  Heavy snow  Heavy precipitations  Wind > 20 kt






- Airport Elevation : 342 ft


KCON - Concord Municipal

CURRENT METAR :
  • 090751Z AUTO 18003KT 10SM CLR 23/23 A2980 RMK AO2 SLP089 T02330228

EXPIRED METARs :
  • 090651Z AUTO 14003KT 10SM BKN090 23/23 A2980 RMK AO2 RAB08E16 SLP090 P0000 T02330228
  • 090551Z AUTO 19004KT 10SM BKN100 OVC120 24/23 A2982 RMK AO2 RAB06E15 SLP094 P0000 60025 T02390233 10239 20233 58013

TAF KCON
Valid from the 09 at 06:00 until the 10 at 06:00 UTC


090540Z 0906/1006 20004KT P6SM BKN070
FM091400 29009G16KT P6SM VCSH BKN050
FM092300 35003KT P6SM BKN012
KZBW FIR / North America



MET'MAP, your aeronautical weather chart ! - Copyright ORBIFLY December 2007 - Disclaimer

ORBIFLY MET'MAP TEAM :

Programming & Development : Alexandra Zaïnal
Original concept : Baudouin d'Aumeries
Technical & hardware support : Manuel Goepfert
Assistance : Marc-Olivier Méhu




SOURCES & CREDITS :

   NOAA